Time,TemperatureF,DewpointF,PressureIn,WindDirection,WindDirectionDegrees,WindSpeedMPH,WindSpeedGustMPH,Humidity,HourlyPrecipIn,Conditions,Clouds,dailyrainin,SoftwareType,DateUTC
2013-02-26 00:04:00,27.0,25.8,30.15,SW,225,0.0,-999.0,95,-99.99,,,0.00,Acu-Link.com,2013-02-26 05:04:00,
2013-02-26 00:20:00,26.8,25.8,30.15,NNE,22,0.0,-999.0,96,-99.99,,,0.00,Acu-Link.com,2013-02-26 05:20:00,
2013-02-26 00:35:00,26.8,25.8,30.15,SW,225,0.0,-999.0,96,-99.99,,,0.00,Acu-Link.com,2013-02-26 05:35:00,
2013-02-26 00:50:00,26.6,25.9,30.15,ESE,112,2.7,-999.0,97,-99.99,,,0.00,Acu-Link.com,2013-02-26 05:50:00,
2013-02-26 01:05:00,26.6,25.9,30.16,NE,45,0.0,-999.0,97,-99.99,,,0.00,Acu-Link.com,2013-02-26 06:05:00,
2013-02-26 01:20:00,26.6,25.9,30.16,ESE,112,0.0,-999.0,97,-99.99,,,0.00,Acu-Link.com,2013-02-26 06:20:00,
2013-02-26 01:36:00,26.4,25.7,30.16,ESE,112,2.7,-999.0,97,-99.99,,,0.00,Acu-Link.com,2013-02-26 06:36:00,
2013-02-26 01:51:00,26.4,25.4,30.17,NNE,22,0.0,-999.0,96,-99.99,,,0.00,Acu-Link.com,2013-02-26 06:51:00,
2013-02-26 02:06:00,26.4,25.4,30.17,SE,135,0.0,-999.0,96,-99.99,,,0.00,Acu-Link.com,2013-02-26 07:06:00,
2013-02-26 02:21:00,26.4,25.4,30.16,North,0,0.0,-999.0,96,-99.99,,,0.00,Acu-Link.com,2013-02-26 07:21:00,
2013-02-26 02:37:00,26.2,25.2,30.15,NNE,22,0.0,-999.0,96,-99.99,,,0.00,Acu-Link.com,2013-02-26 07:37:00,
2013-02-26 02:52:00,26.2,25.5,30.16,WNW,292,0.0,-999.0,97,-99.99,,,0.00,Acu-Link.com,2013-02-26 07:52:00,
2013-02-26 03:07:00,26.1,25.4,30.16,East,90,0.0,-999.0,97,-99.99,,,0.00,Acu-Link.com,2013-02-26 08:07:00,
2013-02-26 03:22:00,26.1,25.4,30.17,East,90,1.7,-999.0,97,-99.99,,,0.00,Acu-Link.com,2013-02-26 08:22:00,
2013-02-26 03:37:00,25.9,25.2,30.18,SW,225,0.0,-999.0,97,-99.99,,,0.00,Acu-Link.com,2013-02-26 08:37:00,
2013-02-26 03:53:00,25.9,25.4,30.19,WNW,292,1.1,-999.0,98,-99.99,,,0.00,Acu-Link.com,2013-02-26 08:53:00,
2013-02-26 07:04:00,24.3,24.1,30.22,WNW,292,0.0,-999.0,99,-99.99,,,0.00,Acu-Link.com,2013-02-26 12:04:00,
2013-02-26 07:19:00,25.5,25.0,30.23,SSW,202,0.0,-999.0,98,-99.99,,,0.00,Acu-Link.com,2013-02-26 12:19:00,
2013-02-26 07:35:00,27.0,25.8,30.23,West,270,0.0,-999.0,95,-99.99,,,0.00,Acu-Link.com,2013-02-26 12:35:00,
2013-02-26 07:50:00,29.1,26.0,30.22,SE,135,4.7,-999.0,88,-99.99,,,0.00,Acu-Link.com,2013-02-26 12:50:00,
2013-02-26 08:05:00,29.3,25.1,30.22,South,180,1.7,-999.0,84,-99.99,,,0.00,Acu-Link.com,2013-02-26 13:05:00,
2013-02-26 08:20:00,30.0,25.5,30.22,SW,225,1.1,-999.0,83,-99.99,,,0.00,Acu-Link.com,2013-02-26 13:20:00,
2013-02-26 08:35:00,32.5,26.1,30.23,WSW,247,1.7,-999.0,77,-99.99,,,0.00,Acu-Link.com,2013-02-26 13:35:00,
2013-02-26 08:51:00,38.1,28.5,30.24,ESE,112,0.0,-999.0,68,-99.99,,,0.00,Acu-Link.com,2013-02-26 13:51:00,
2013-02-26 09:06:00,39.6,28.1,30.23,South,180,0.0,-999.0,63,-99.99,,,0.00,Acu-Link.com,2013-02-26 14:06:00,
2013-02-26 09:21:00,39.2,26.9,30.23,SSE,157,2.2,-999.0,61,-99.99,,,0.00,Acu-Link.com,2013-02-26 14:21:00,
2013-02-26 09:36:00,42.8,27.3,30.23,SE,135,0.0,-999.0,54,-99.99,,,0.00,Acu-Link.com,2013-02-26 14:36:00,
2013-02-26 09:52:00,44.8,26.3,30.23,SSE,157,2.2,-999.0,48,-99.99,,,0.00,Acu-Link.com,2013-02-26 14:52:00,
2013-02-26 10:07:00,46.9,27.2,30.22,South,180,3.7,-999.0,46,-99.99,,,0.00,Acu-Link.com,2013-02-26 15:07:00,
2013-02-26 10:22:00,48.0,27.1,30.23,South,180,3.2,-999.0,44,-99.99,,,0.00,Acu-Link.com,2013-02-26 15:22:00,
2013-02-26 10:37:00,46.4,26.8,30.22,West,270,1.7,-999.0,46,-99.99,,,0.01,Acu-Link.com,2013-02-26 15:37:00,
2013-02-26 10:52:00,47.1,25.8,30.21,SSE,157,3.7,-999.0,43,-99.99,,,0.01,Acu-Link.com,2013-02-26 15:52:00,
2013-02-26 11:08:00,45.5,24.9,30.20,SSE,157,4.7,-999.0,44,-99.99,,,0.06,Acu-Link.com,2013-02-26 16:08:00,
2013-02-26 11:23:00,38.1,24.2,30.21,SSE,157,2.2,-999.0,57,-99.99,,,0.08,Acu-Link.com,2013-02-26 16:23:00,
2013-02-26 11:38:00,36.9,24.7,30.21,SSW,202,1.7,-999.0,61,-99.99,,,0.10,Acu-Link.com,2013-02-26 16:38:00,
2013-02-26 11:53:00,36.5,24.3,30.20,West,270,1.1,-999.0,61,-99.99,,,0.11,Acu-Link.com,2013-02-26 16:53:00,
2013-02-26 12:08:00,36.7,24.5,30.20,West,270,0.0,-999.0,61,-99.99,,,0.12,Acu-Link.com,2013-02-26 17:08:00,
2013-02-26 12:24:00,37.2,23.8,30.20,ESE,112,2.7,-999.0,58,-99.99,,,0.13,Acu-Link.com,2013-02-26 17:24:00,
2013-02-26 12:39:00,36.7,24.1,30.18,SE,135,1.1,-999.0,60,-99.99,,,0.14,Acu-Link.com,2013-02-26 17:39:00,
2013-02-26 12:54:00,37.6,23.8,30.18,South,180,0.0,-999.0,57,-99.99,,,0.15,Acu-Link.com,2013-02-26 17:54:00,
2013-02-26 13:09:00,37.4,23.6,30.19,SSE,157,2.7,-999.0,57,-99.99,,,0.16,Acu-Link.com,2013-02-26 18:09:00,
2013-02-26 13:24:00,38.7,25.2,30.19,SSE,157,1.1,-999.0,58,-99.99,,,0.17,Acu-Link.com,2013-02-26 18:24:00,
2013-02-26 13:40:00,39.4,25.0,30.18,SSW,202,2.2,-999.0,56,-99.99,,,0.18,Acu-Link.com,2013-02-26 18:40:00,
2013-02-26 13:55:00,38.7,26.4,30.18,SSE,157,1.7,-999.0,61,-99.99,,,0.18,Acu-Link.com,2013-02-26 18:55:00,
2013-02-26 14:10:00,38.7,25.6,30.20,SE,135,1.1,-999.0,59,-99.99,,,0.20,Acu-Link.com,2013-02-26 19:10:00,
2013-02-26 14:25:00,38.3,24.4,30.19,SE,135,2.2,-999.0,57,-99.99,,,0.20,Acu-Link.com,2013-02-26 19:25:00,
2013-02-26 14:40:00,38.3,24.8,30.19,ESE,112,2.2,-999.0,58,-99.99,,,0.20,Acu-Link.com,2013-02-26 19:40:00,
2013-02-26 14:56:00,37.8,25.2,30.18,ESE,112,2.2,-999.0,60,-99.99,,,0.21,Acu-Link.com,2013-02-26 19:56:00,
2013-02-26 15:11:00,37.6,24.6,30.18,SSE,157,2.2,-999.0,59,-99.99,,,0.22,Acu-Link.com,2013-02-26 20:11:00,
2013-02-26 15:26:00,37.2,24.6,30.18,ESE,112,2.7,-999.0,60,-99.99,,,0.22,Acu-Link.com,2013-02-26 20:26:00,
2013-02-26 15:41:00,36.1,24.4,30.17,WSW,247,1.7,-999.0,62,-99.99,,,0.22,Acu-Link.com,2013-02-26 20:41:00,
2013-02-26 15:57:00,36.0,25.0,30.16,SW,225,1.7,-999.0,64,-99.99,,,0.22,Acu-Link.com,2013-02-26 20:57:00,
2013-02-26 16:12:00,35.4,24.8,30.16,SE,135,0.0,-999.0,65,-99.99,,,0.22,Acu-Link.com,2013-02-26 21:12:00,
2013-02-26 16:27:00,35.4,25.9,30.16,East,90,0.0,-999.0,68,-99.99,,,0.23,Acu-Link.com,2013-02-26 21:27:00,
2013-02-26 16:42:00,34.7,26.3,30.17,East,90,0.0,-999.0,71,-99.99,,,0.23,Acu-Link.com,2013-02-26 21:42:00,
2013-02-26 16:57:00,33.8,26.4,30.16,SE,135,0.0,-999.0,74,-99.99,,,0.23,Acu-Link.com,2013-02-26 21:57:00,
2013-02-26 17:13:00,33.1,26.1,30.17,ESE,112,2.2,-999.0,75,-99.99,,,0.23,Acu-Link.com,2013-02-26 22:13:00,
2013-02-26 17:28:00,33.1,24.7,30.16,SSE,157,1.7,-999.0,71,-99.99,,,0.23,Acu-Link.com,2013-02-26 22:28:00,
2013-02-26 17:43:00,32.7,26.3,30.15,NNW,337,1.7,-999.0,77,-99.99,,,0.23,Acu-Link.com,2013-02-26 22:43:00,
2013-02-26 17:58:00,32.2,25.5,30.17,SSE,157,4.2,-999.0,76,-99.99,,,0.23,Acu-Link.com,2013-02-26 22:58:00,
2013-02-26 18:13:00,31.8,25.4,30.17,SSE,157,2.7,-999.0,77,-99.99,,,0.23,Acu-Link.com,2013-02-26 23:13:00,
2013-02-26 18:29:00,31.3,25.6,30.17,ESE,112,2.2,-999.0,79,-99.99,,,0.23,Acu-Link.com,2013-02-26 23:29:00,
2013-02-26 18:44:00,30.2,25.4,30.16,ESE,112,1.7,-999.0,82,-99.99,,,0.23,Acu-Link.com,2013-02-26 23:44:00,
2013-02-26 18:59:00,29.7,24.9,30.17,SE,135,1.7,-999.0,82,-99.99,,,0.23,Acu-Link.com,2013-02-26 23:59:00,
2013-02-26 19:14:00,29.3,24.8,30.18,SE,135,2.2,-999.0,83,-99.99,,,0.23,Acu-Link.com,2013-02-27 00:14:00,
2013-02-26 19:29:00,29.1,24.9,30.17,SSE,157,1.7,-999.0,84,-99.99,,,0.23,Acu-Link.com,2013-02-27 00:29:00,
2013-02-26 19:45:00,29.7,24.9,30.17,ENE,67,2.2,-999.0,82,-99.99,,,0.23,Acu-Link.com,2013-02-27 00:45:00,
2013-02-26 20:00:00,30.2,24.5,30.16,South,180,1.7,-999.0,79,-99.99,,,0.23,Acu-Link.com,2013-02-27 01:00:00,
2013-02-26 20:15:00,30.0,24.3,30.16,South,180,2.2,-999.0,79,-99.99,,,0.23,Acu-Link.com,2013-02-27 01:15:00,
2013-02-26 20:30:00,28.9,23.8,30.17,West,270,0.0,-999.0,81,-99.99,,,0.23,Acu-Link.com,2013-02-27 01:30:00,
2013-02-26 20:46:00,28.0,23.2,30.17,SSW,202,0.0,-999.0,82,-99.99,,,0.23,Acu-Link.com,2013-02-27 01:46:00,
2013-02-26 21:01:00,27.9,23.4,30.17,SW,225,0.0,-999.0,83,-99.99,,,0.23,Acu-Link.com,2013-02-27 02:01:00,
2013-02-26 21:16:00,27.9,23.7,30.18,ENE,67,0.0,-999.0,84,-99.99,,,0.23,Acu-Link.com,2013-02-27 02:16:00,
2013-02-26 21:31:00,29.1,24.3,30.17,ESE,112,2.7,-999.0,82,-99.99,,,0.23,Acu-Link.com,2013-02-27 02:31:00,
2013-02-26 21:46:00,28.4,23.9,30.17,ESE,112,3.2,-999.0,83,-99.99,,,0.23,Acu-Link.com,2013-02-27 02:46:00,
2013-02-26 22:02:00,28.0,23.5,30.16,SE,135,2.7,-999.0,83,-99.99,,,0.23,Acu-Link.com,2013-02-27 03:02:00,
2013-02-26 22:17:00,28.6,24.1,30.15,ESE,112,3.7,-999.0,83,-99.99,,,0.23,Acu-Link.com,2013-02-27 03:17:00,
2013-02-26 22:32:00,28.6,24.1,30.13,SSE,157,1.7,-999.0,83,-99.99,,,0.23,Acu-Link.com,2013-02-27 03:32:00,
2013-02-26 22:47:00,28.0,23.5,30.13,ESE,112,4.2,-999.0,83,-99.99,,,0.23,Acu-Link.com,2013-02-27 03:47:00,
2013-02-26 23:02:00,28.0,23.5,30.12,SE,135,4.2,-999.0,83,-99.99,,,0.23,Acu-Link.com,2013-02-27 04:02:00,
2013-02-26 23:18:00,27.7,23.2,30.13,SE,135,4.7,-999.0,83,-99.99,,,0.23,Acu-Link.com,2013-02-27 04:18:00,
2013-02-26 23:33:00,28.0,23.8,30.12,ESE,112,3.2,-999.0,84,-99.99,,,0.23,Acu-Link.com,2013-02-27 04:33:00,
2013-02-26 23:48:00,27.3,23.1,30.13,ESE,112,2.7,-999.0,84,-99.99,,,0.23,Acu-Link.com,2013-02-27 04:48:00,